sensor_id;sensor_type;location;lat;lon;timestamp;P1;durP1;ratioP1;P2;durP2;ratioP2
9388;SDS011;4734;52.778;6.798;2024-03-25T00:01:34;7.77;;;2.53;;
9388;SDS011;4734;52.778;6.798;2024-03-25T00:04:19;7.27;;;2.40;;
9388;SDS011;4734;52.778;6.798;2024-03-25T00:07:06;6.33;;;2.30;;
9388;SDS011;4734;52.778;6.798;2024-03-25T00:09:51;6.97;;;2.33;;
9388;SDS011;4734;52.778;6.798;2024-03-25T00:12:38;11.13;;;2.80;;
9388;SDS011;4734;52.778;6.798;2024-03-25T00:15:24;9.47;;;2.30;;
9388;SDS011;4734;52.778;6.798;2024-03-25T00:18:10;7.80;;;2.67;;
9388;SDS011;4734;52.778;6.798;2024-03-25T00:20:56;12.53;;;2.40;;
9388;SDS011;4734;52.778;6.798;2024-03-25T00:23:40;10.27;;;2.40;;
9388;SDS011;4734;52.778;6.798;2024-03-25T00:26:26;8.20;;;2.30;;
9388;SDS011;4734;52.778;6.798;2024-03-25T00:29:11;7.93;;;2.67;;
9388;SDS011;4734;52.778;6.798;2024-03-25T00:31:56;9.13;;;2.30;;
9388;SDS011;4734;52.778;6.798;2024-03-25T00:34:42;6.33;;;2.03;;
9388;SDS011;4734;52.778;6.798;2024-03-25T00:37:27;8.93;;;2.63;;
9388;SDS011;4734;52.778;6.798;2024-03-25T00:40:12;10.97;;;2.60;;
9388;SDS011;4734;52.778;6.798;2024-03-25T00:42:58;6.27;;;1.93;;
9388;SDS011;4734;52.778;6.798;2024-03-25T00:45:42;8.03;;;2.60;;
9388;SDS011;4734;52.778;6.798;2024-03-25T00:48:28;4.93;;;2.10;;
9388;SDS011;4734;52.778;6.798;2024-03-25T00:51:14;6.80;;;2.20;;
9388;SDS011;4734;52.778;6.798;2024-03-25T00:54:00;8.50;;;2.13;;
9388;SDS011;4734;52.778;6.798;2024-03-25T00:56:45;6.83;;;2.13;;
9388;SDS011;4734;52.778;6.798;2024-03-25T00:59:30;4.50;;;1.90;;
9388;SDS011;4734;52.778;6.798;2024-03-25T01:02:15;5.47;;;2.50;;
9388;SDS011;4734;52.778;6.798;2024-03-25T01:05:00;6.80;;;2.47;;
9388;SDS011;4734;52.778;6.798;2024-03-25T01:07:48;8.57;;;2.47;;
9388;SDS011;4734;52.778;6.798;2024-03-25T01:10:33;5.73;;;1.97;;
9388;SDS011;4734;52.778;6.798;2024-03-25T01:13:18;6.90;;;2.27;;
9388;SDS011;4734;52.778;6.798;2024-03-25T01:16:04;9.80;;;2.57;;
9388;SDS011;4734;52.778;6.798;2024-03-25T01:18:49;10.57;;;2.87;;
9388;SDS011;4734;52.778;6.798;2024-03-25T01:21:34;8.30;;;2.33;;
9388;SDS011;4734;52.778;6.798;2024-03-25T01:24:20;9.43;;;2.40;;
9388;SDS011;4734;52.778;6.798;2024-03-25T01:27:05;10.17;;;2.70;;
9388;SDS011;4734;52.778;6.798;2024-03-25T01:29:50;8.97;;;2.67;;
9388;SDS011;4734;52.778;6.798;2024-03-25T01:32:36;11.70;;;2.67;;
9388;SDS011;4734;52.778;6.798;2024-03-25T01:35:20;7.27;;;2.40;;
9388;SDS011;4734;52.778;6.798;2024-03-25T01:38:06;8.93;;;2.43;;
9388;SDS011;4734;52.778;6.798;2024-03-25T01:40:52;7.90;;;3.03;;
9388;SDS011;4734;52.778;6.798;2024-03-25T01:43:37;7.30;;;2.50;;
9388;SDS011;4734;52.778;6.798;2024-03-25T01:46:22;6.77;;;2.87;;
9388;SDS011;4734;52.778;6.798;2024-03-25T01:49:08;8.23;;;2.57;;
9388;SDS011;4734;52.778;6.798;2024-03-25T01:51:54;7.23;;;2.23;;
9388;SDS011;4734;52.778;6.798;2024-03-25T01:54:40;9.23;;;2.83;;
9388;SDS011;4734;52.778;6.798;2024-03-25T01:57:26;12.73;;;3.03;;
9388;SDS011;4734;52.778;6.798;2024-03-25T02:00:12;14.30;;;2.87;;
9388;SDS011;4734;52.778;6.798;2024-03-25T02:02:57;11.27;;;3.20;;
9388;SDS011;4734;52.778;6.798;2024-03-25T02:05:43;10.27;;;2.97;;
9388;SDS011;4734;52.778;6.798;2024-03-25T02:08:29;8.33;;;2.87;;
9388;SDS011;4734;52.778;6.798;2024-03-25T02:11:15;9.50;;;2.70;;
9388;SDS011;4734;52.778;6.798;2024-03-25T02:14:03;11.00;;;2.93;;
9388;SDS011;4734;52.778;6.798;2024-03-25T02:16:48;8.47;;;2.80;;
9388;SDS011;4734;52.778;6.798;2024-03-25T02:19:34;13.80;;;2.83;;
9388;SDS011;4734;52.778;6.798;2024-03-25T02:22:21;12.67;;;2.73;;
9388;SDS011;4734;52.778;6.798;2024-03-25T02:25:07;7.37;;;2.83;;
9388;SDS011;4734;52.778;6.798;2024-03-25T02:27:54;11.80;;;3.00;;
9388;SDS011;4734;52.778;6.798;2024-03-25T02:30:39;14.53;;;2.97;;
9388;SDS011;4734;52.778;6.798;2024-03-25T02:33:24;9.67;;;3.10;;
9388;SDS011;4734;52.778;6.798;2024-03-25T02:36:09;15.50;;;2.93;;
9388;SDS011;4734;52.778;6.798;2024-03-25T02:38:54;7.17;;;3.00;;
9388;SDS011;4734;52.778;6.798;2024-03-25T02:41:39;11.03;;;2.73;;
9388;SDS011;4734;52.778;6.798;2024-03-25T02:44:25;9.97;;;3.13;;
9388;SDS011;4734;52.778;6.798;2024-03-25T02:47:11;10.73;;;3.07;;
9388;SDS011;4734;52.778;6.798;2024-03-25T02:49:56;16.63;;;2.67;;
9388;SDS011;4734;52.778;6.798;2024-03-25T02:52:41;10.63;;;2.47;;
9388;SDS011;4734;52.778;6.798;2024-03-25T02:55:26;7.53;;;2.50;;
9388;SDS011;4734;52.778;6.798;2024-03-25T02:58:11;11.17;;;2.50;;
9388;SDS011;4734;52.778;6.798;2024-03-25T03:00:57;14.43;;;3.00;;
9388;SDS011;4734;52.778;6.798;2024-03-25T03:03:43;9.90;;;2.77;;
9388;SDS011;4734;52.778;6.798;2024-03-25T03:06:28;9.43;;;2.80;;
9388;SDS011;4734;52.778;6.798;2024-03-25T03:09:13;10.23;;;2.87;;
9388;SDS011;4734;52.778;6.798;2024-03-25T03:11:59;6.47;;;2.40;;
9388;SDS011;4734;52.778;6.798;2024-03-25T03:14:44;12.50;;;2.83;;
9388;SDS011;4734;52.778;6.798;2024-03-25T03:17:30;6.00;;;2.63;;
9388;SDS011;4734;52.778;6.798;2024-03-25T03:20:15;7.93;;;2.50;;
9388;SDS011;4734;52.778;6.798;2024-03-25T03:23:00;11.77;;;2.37;;
9388;SDS011;4734;52.778;6.798;2024-03-25T03:25:46;13.80;;;2.57;;
9388;SDS011;4734;52.778;6.798;2024-03-25T03:28:30;7.20;;;2.70;;
9388;SDS011;4734;52.778;6.798;2024-03-25T03:31:16;9.63;;;2.40;;
9388;SDS011;4734;52.778;6.798;2024-03-25T03:34:02;9.77;;;2.60;;
9388;SDS011;4734;52.778;6.798;2024-03-25T03:36:47;10.40;;;2.80;;
9388;SDS011;4734;52.778;6.798;2024-03-25T03:39:32;12.10;;;2.70;;
9388;SDS011;4734;52.778;6.798;2024-03-25T03:42:17;9.40;;;2.60;;
9388;SDS011;4734;52.778;6.798;2024-03-25T03:45:02;10.77;;;2.40;;
9388;SDS011;4734;52.778;6.798;2024-03-25T03:47:48;10.90;;;2.73;;
9388;SDS011;4734;52.778;6.798;2024-03-25T03:50:34;7.70;;;2.67;;
9388;SDS011;4734;52.778;6.798;2024-03-25T03:53:21;10.57;;;2.90;;
9388;SDS011;4734;52.778;6.798;2024-03-25T03:56:06;9.83;;;2.33;;
9388;SDS011;4734;52.778;6.798;2024-03-25T03:58:51;7.33;;;2.67;;
9388;SDS011;4734;52.778;6.798;2024-03-25T04:01:36;9.27;;;2.47;;
9388;SDS011;4734;52.778;6.798;2024-03-25T04:04:22;6.67;;;2.23;;
9388;SDS011;4734;52.778;6.798;2024-03-25T04:07:08;8.93;;;2.13;;
9388;SDS011;4734;52.778;6.798;2024-03-25T04:09:53;12.03;;;2.57;;
9388;SDS011;4734;52.778;6.798;2024-03-25T04:12:38;7.77;;;2.13;;
9388;SDS011;4734;52.778;6.798;2024-03-25T04:15:24;8.03;;;2.37;;
9388;SDS011;4734;52.778;6.798;2024-03-25T04:18:10;7.97;;;2.67;;
9388;SDS011;4734;52.778;6.798;2024-03-25T04:20:56;8.47;;;2.57;;
9388;SDS011;4734;52.778;6.798;2024-03-25T04:23:42;5.03;;;2.13;;
9388;SDS011;4734;52.778;6.798;2024-03-25T04:26:28;7.40;;;2.40;;
9388;SDS011;4734;52.778;6.798;2024-03-25T04:29:14;9.60;;;2.73;;
9388;SDS011;4734;52.778;6.798;2024-03-25T04:32:00;9.77;;;2.37;;
9388;SDS011;4734;52.778;6.798;2024-03-25T04:34:45;10.60;;;2.60;;
9388;SDS011;4734;52.778;6.798;2024-03-25T04:37:31;10.23;;;2.77;;
9388;SDS011;4734;52.778;6.798;2024-03-25T04:40:17;7.83;;;2.87;;
9388;SDS011;4734;52.778;6.798;2024-03-25T04:43:02;7.33;;;1.93;;
9388;SDS011;4734;52.778;6.798;2024-03-25T04:45:47;8.77;;;2.33;;
9388;SDS011;4734;52.778;6.798;2024-03-25T04:48:31;6.23;;;2.13;;
9388;SDS011;4734;52.778;6.798;2024-03-25T04:51:16;6.13;;;2.07;;
9388;SDS011;4734;52.778;6.798;2024-03-25T04:54:01;7.90;;;2.50;;
9388;SDS011;4734;52.778;6.798;2024-03-25T04:56:47;7.17;;;2.43;;
9388;SDS011;4734;52.778;6.798;2024-03-25T04:59:31;8.73;;;2.37;;
9388;SDS011;4734;52.778;6.798;2024-03-25T05:02:16;5.37;;;2.20;;
9388;SDS011;4734;52.778;6.798;2024-03-25T05:05:01;5.87;;;1.93;;
9388;SDS011;4734;52.778;6.798;2024-03-25T05:07:46;7.53;;;2.20;;
9388;SDS011;4734;52.778;6.798;2024-03-25T05:10:30;5.87;;;1.87;;
9388;SDS011;4734;52.778;6.798;2024-03-25T05:13:16;4.47;;;1.90;;
9388;SDS011;4734;52.778;6.798;2024-03-25T05:16:01;5.77;;;2.00;;
9388;SDS011;4734;52.778;6.798;2024-03-25T05:18:46;5.07;;;1.70;;
9388;SDS011;4734;52.778;6.798;2024-03-25T05:21:30;5.67;;;1.90;;
9388;SDS011;4734;52.778;6.798;2024-03-25T05:24:15;6.30;;;1.77;;
9388;SDS011;4734;52.778;6.798;2024-03-25T05:27:00;9.53;;;2.20;;
9388;SDS011;4734;52.778;6.798;2024-03-25T05:29:46;6.43;;;2.10;;
9388;SDS011;4734;52.778;6.798;2024-03-25T05:32:30;6.33;;;2.53;;
9388;SDS011;4734;52.778;6.798;2024-03-25T05:35:15;4.97;;;2.10;;
9388;SDS011;4734;52.778;6.798;2024-03-25T05:38:00;6.90;;;2.27;;
9388;SDS011;4734;52.778;6.798;2024-03-25T05:40:45;4.93;;;1.83;;
9388;SDS011;4734;52.778;6.798;2024-03-25T05:43:29;6.37;;;2.10;;
9388;SDS011;4734;52.778;6.798;2024-03-25T05:46:15;8.53;;;2.43;;
9388;SDS011;4734;52.778;6.798;2024-03-25T05:49:03;8.00;;;2.30;;
9388;SDS011;4734;52.778;6.798;2024-03-25T05:51:48;4.33;;;2.13;;
9388;SDS011;4734;52.778;6.798;2024-03-25T05:54:32;5.67;;;2.20;;
9388;SDS011;4734;52.778;6.798;2024-03-25T05:57:17;5.17;;;2.00;;
9388;SDS011;4734;52.778;6.798;2024-03-25T06:00:02;9.30;;;1.97;;
9388;SDS011;4734;52.778;6.798;2024-03-25T06:02:48;6.43;;;2.23;;
9388;SDS011;4734;52.778;6.798;2024-03-25T06:05:33;12.60;;;2.70;;
9388;SDS011;4734;52.778;6.798;2024-03-25T06:08:18;6.40;;;2.00;;
9388;SDS011;4734;52.778;6.798;2024-03-25T06:11:02;6.00;;;2.07;;
9388;SDS011;4734;52.778;6.798;2024-03-25T06:13:47;9.23;;;2.10;;
9388;SDS011;4734;52.778;6.798;2024-03-25T06:16:32;4.37;;;2.17;;
9388;SDS011;4734;52.778;6.798;2024-03-25T06:19:18;7.90;;;2.30;;
9388;SDS011;4734;52.778;6.798;2024-03-25T06:22:02;6.73;;;1.73;;
9388;SDS011;4734;52.778;6.798;2024-03-25T06:24:47;6.73;;;1.90;;
9388;SDS011;4734;52.778;6.798;2024-03-25T06:27:32;2.87;;;1.70;;
9388;SDS011;4734;52.778;6.798;2024-03-25T06:30:17;8.80;;;1.90;;
9388;SDS011;4734;52.778;6.798;2024-03-25T06:33:20;8.87;;;2.20;;
9388;SDS011;4734;52.778;6.798;2024-03-25T06:36:24;11.53;;;2.40;;
9388;SDS011;4734;52.778;6.798;2024-03-25T06:39:09;9.37;;;1.93;;
9388;SDS011;4734;52.778;6.798;2024-03-25T06:41:54;10.90;;;2.13;;
9388;SDS011;4734;52.778;6.798;2024-03-25T06:44:39;6.17;;;2.10;;
9388;SDS011;4734;52.778;6.798;2024-03-25T06:47:23;6.63;;;1.77;;
9388;SDS011;4734;52.778;6.798;2024-03-25T06:50:08;6.53;;;1.97;;
9388;SDS011;4734;52.778;6.798;2024-03-25T06:52:55;8.63;;;2.23;;
9388;SDS011;4734;52.778;6.798;2024-03-25T06:55:39;6.43;;;2.50;;
9388;SDS011;4734;52.778;6.798;2024-03-25T06:58:24;6.13;;;1.93;;
9388;SDS011;4734;52.778;6.798;2024-03-25T07:01:10;7.43;;;2.33;;
9388;SDS011;4734;52.778;6.798;2024-03-25T07:03:54;9.60;;;2.70;;
9388;SDS011;4734;52.778;6.798;2024-03-25T07:06:39;5.63;;;2.33;;
9388;SDS011;4734;52.778;6.798;2024-03-25T07:09:25;5.37;;;1.93;;
9388;SDS011;4734;52.778;6.798;2024-03-25T07:12:10;7.27;;;2.33;;
9388;SDS011;4734;52.778;6.798;2024-03-25T07:14:55;7.43;;;2.20;;
9388;SDS011;4734;52.778;6.798;2024-03-25T07:17:39;6.73;;;2.50;;
9388;SDS011;4734;52.778;6.798;2024-03-25T07:20:24;10.43;;;2.57;;
9388;SDS011;4734;52.778;6.798;2024-03-25T07:23:09;8.70;;;2.43;;
9388;SDS011;4734;52.778;6.798;2024-03-25T07:25:56;13.77;;;2.67;;
9388;SDS011;4734;52.778;6.798;2024-03-25T07:28:41;8.97;;;2.07;;
9388;SDS011;4734;52.778;6.798;2024-03-25T07:31:25;7.47;;;2.37;;
9388;SDS011;4734;52.778;6.798;2024-03-25T07:34:10;3.40;;;2.27;;
9388;SDS011;4734;52.778;6.798;2024-03-25T07:36:55;4.00;;;2.40;;
9388;SDS011;4734;52.778;6.798;2024-03-25T07:39:39;6.93;;;2.00;;
9388;SDS011;4734;52.778;6.798;2024-03-25T07:42:25;6.77;;;2.23;;
9388;SDS011;4734;52.778;6.798;2024-03-25T07:45:10;5.87;;;2.10;;
9388;SDS011;4734;52.778;6.798;2024-03-25T07:47:55;8.67;;;1.70;;
9388;SDS011;4734;52.778;6.798;2024-03-25T07:50:40;6.53;;;2.10;;
9388;SDS011;4734;52.778;6.798;2024-03-25T07:53:25;5.80;;;2.23;;
9388;SDS011;4734;52.778;6.798;2024-03-25T07:56:09;7.47;;;2.20;;
9388;SDS011;4734;52.778;6.798;2024-03-25T07:58:55;6.27;;;1.80;;
9388;SDS011;4734;52.778;6.798;2024-03-25T08:01:40;5.87;;;2.47;;
9388;SDS011;4734;52.778;6.798;2024-03-25T08:04:25;7.13;;;2.60;;
9388;SDS011;4734;52.778;6.798;2024-03-25T08:07:10;6.57;;;2.30;;
9388;SDS011;4734;52.778;6.798;2024-03-25T08:09:54;4.83;;;1.97;;
9388;SDS011;4734;52.778;6.798;2024-03-25T08:12:39;7.70;;;2.27;;
9388;SDS011;4734;52.778;6.798;2024-03-25T08:15:25;5.83;;;2.20;;
9388;SDS011;4734;52.778;6.798;2024-03-25T08:18:10;5.27;;;2.23;;
9388;SDS011;4734;52.778;6.798;2024-03-25T08:20:55;7.53;;;2.30;;
9388;SDS011;4734;52.778;6.798;2024-03-25T08:23:39;5.10;;;2.30;;
9388;SDS011;4734;52.778;6.798;2024-03-25T08:26:24;9.97;;;2.50;;
9388;SDS011;4734;52.778;6.798;2024-03-25T08:29:09;8.63;;;2.37;;
9388;SDS011;4734;52.778;6.798;2024-03-25T08:31:55;5.65;;;2.22;;
9388;SDS011;4734;52.778;6.798;2024-03-25T08:34:39;6.40;;;2.03;;
9388;SDS011;4734;52.778;6.798;2024-03-25T08:37:27;6.47;;;2.03;;
9388;SDS011;4734;52.778;6.798;2024-03-25T08:40:12;6.53;;;2.43;;
9388;SDS011;4734;52.778;6.798;2024-03-25T08:42:56;7.97;;;2.00;;
9388;SDS011;4734;52.778;6.798;2024-03-25T08:45:41;6.73;;;2.30;;
9388;SDS011;4734;52.778;6.798;2024-03-25T08:48:28;9.40;;;2.30;;
9388;SDS011;4734;52.778;6.798;2024-03-25T08:51:12;5.10;;;2.23;;
9388;SDS011;4734;52.778;6.798;2024-03-25T08:53:57;4.30;;;2.10;;
9388;SDS011;4734;52.778;6.798;2024-03-25T08:56:42;8.23;;;2.73;;
9388;SDS011;4734;52.778;6.798;2024-03-25T08:59:27;5.93;;;2.20;;
9388;SDS011;4734;52.778;6.798;2024-03-25T09:02:11;3.95;;;1.75;;
9388;SDS011;4734;52.778;6.798;2024-03-25T09:04:57;6.82;;;2.10;;
9388;SDS011;4734;52.778;6.798;2024-03-25T09:07:42;10.30;;;2.30;;
9388;SDS011;4734;52.778;6.798;2024-03-25T09:10:26;3.60;;;2.00;;
9388;SDS011;4734;52.778;6.798;2024-03-25T09:13:31;9.20;;;2.05;;
9388;SDS011;4734;52.778;6.798;2024-03-25T09:16:16;7.13;;;2.30;;
9388;SDS011;4734;52.778;6.798;2024-03-25T09:19:00;8.85;;;2.35;;
9388;SDS011;4734;52.778;6.798;2024-03-25T09:21:47;10.23;;;2.17;;
9388;SDS011;4734;52.778;6.798;2024-03-25T09:24:31;8.55;;;2.20;;
9388;SDS011;4734;52.778;6.798;2024-03-25T09:27:16;7.25;;;2.13;;
9388;SDS011;4734;52.778;6.798;2024-03-25T09:30:01;12.43;;;2.28;;
9388;SDS011;4734;52.778;6.798;2024-03-25T09:32:46;6.45;;;2.08;;
9388;SDS011;4734;52.778;6.798;2024-03-25T09:35:30;8.07;;;2.25;;
9388;SDS011;4734;52.778;6.798;2024-03-25T09:38:16;7.97;;;2.17;;
9388;SDS011;4734;52.778;6.798;2024-03-25T09:41:01;3.28;;;1.90;;
9388;SDS011;4734;52.778;6.798;2024-03-25T09:43:47;8.25;;;2.30;;
9388;SDS011;4734;52.778;6.798;2024-03-25T09:46:33;6.40;;;2.25;;
9388;SDS011;4734;52.778;6.798;2024-03-25T09:49:18;6.75;;;2.20;;
9388;SDS011;4734;52.778;6.798;2024-03-25T09:52:04;10.20;;;2.35;;
9388;SDS011;4734;52.778;6.798;2024-03-25T09:54:50;5.97;;;2.00;;
9388;SDS011;4734;52.778;6.798;2024-03-25T09:57:35;7.25;;;1.85;;
9388;SDS011;4734;52.778;6.798;2024-03-25T10:00:20;7.90;;;2.30;;
9388;SDS011;4734;52.778;6.798;2024-03-25T10:03:05;9.40;;;2.50;;
9388;SDS011;4734;52.778;6.798;2024-03-25T10:05:50;4.00;;;2.00;;
9388;SDS011;4734;52.778;6.798;2024-03-25T10:08:34;9.57;;;2.40;;
9388;SDS011;4734;52.778;6.798;2024-03-25T10:11:20;3.30;;;1.90;;
9388;SDS011;4734;52.778;6.798;2024-03-25T10:14:05;6.82;;;1.98;;
9388;SDS011;4734;52.778;6.798;2024-03-25T10:16:50;6.82;;;1.77;;
9388;SDS011;4734;52.778;6.798;2024-03-25T10:19:35;6.18;;;1.85;;
9388;SDS011;4734;52.778;6.798;2024-03-25T10:22:19;6.03;;;1.70;;
9388;SDS011;4734;52.778;6.798;2024-03-25T10:25:04;8.93;;;2.53;;
9388;SDS011;4734;52.778;6.798;2024-03-25T10:27:54;8.20;;;2.13;;
9388;SDS011;4734;52.778;6.798;2024-03-25T10:30:40;10.32;;;2.60;;
9388;SDS011;4734;52.778;6.798;2024-03-25T10:33:25;5.97;;;2.15;;
9388;SDS011;4734;52.778;6.798;2024-03-25T10:36:10;7.75;;;2.15;;
9388;SDS011;4734;52.778;6.798;2024-03-25T10:38:56;4.80;;;1.80;;
9388;SDS011;4734;52.778;6.798;2024-03-25T10:41:43;6.90;;;1.92;;
9388;SDS011;4734;52.778;6.798;2024-03-25T10:44:30;5.88;;;1.92;;
9388;SDS011;4734;52.778;6.798;2024-03-25T10:47:17;6.10;;;1.98;;
9388;SDS011;4734;52.778;6.798;2024-03-25T10:50:06;5.88;;;1.95;;
9388;SDS011;4734;52.778;6.798;2024-03-25T10:52:55;7.97;;;1.67;;
9388;SDS011;4734;52.778;6.798;2024-03-25T10:55:41;5.40;;;2.20;;
9388;SDS011;4734;52.778;6.798;2024-03-25T10:58:26;7.95;;;2.08;;
9388;SDS011;4734;52.778;6.798;2024-03-25T11:01:13;4.80;;;1.48;;
9388;SDS011;4734;52.778;6.798;2024-03-25T11:04:00;7.43;;;2.03;;
9388;SDS011;4734;52.778;6.798;2024-03-25T11:06:45;5.32;;;1.80;;
9388;SDS011;4734;52.778;6.798;2024-03-25T11:09:29;6.50;;;2.15;;
9388;SDS011;4734;52.778;6.798;2024-03-25T11:12:14;9.13;;;2.00;;
9388;SDS011;4734;52.778;6.798;2024-03-25T11:15:00;3.88;;;1.63;;
9388;SDS011;4734;52.778;6.798;2024-03-25T11:17:49;5.35;;;1.85;;
9388;SDS011;4734;52.778;6.798;2024-03-25T11:20:34;4.20;;;2.00;;
9388;SDS011;4734;52.778;6.798;2024-03-25T11:23:19;5.30;;;2.05;;
9388;SDS011;4734;52.778;6.798;2024-03-25T11:26:03;6.10;;;2.00;;
9388;SDS011;4734;52.778;6.798;2024-03-25T11:28:48;2.88;;;1.58;;
9388;SDS011;4734;52.778;6.798;2024-03-25T11:31:33;4.78;;;1.63;;
9388;SDS011;4734;52.778;6.798;2024-03-25T11:34:19;7.53;;;1.83;;
9388;SDS011;4734;52.778;6.798;2024-03-25T11:37:04;7.30;;;2.10;;
9388;SDS011;4734;52.778;6.798;2024-03-25T11:39:49;6.60;;;1.50;;
9388;SDS011;4734;52.778;6.798;2024-03-25T11:42:33;4.97;;;1.58;;
9388;SDS011;4734;52.778;6.798;2024-03-25T11:45:19;6.05;;;1.88;;
9388;SDS011;4734;52.778;6.798;2024-03-25T11:48:05;7.35;;;2.33;;
9388;SDS011;4734;52.778;6.798;2024-03-25T11:50:51;3.95;;;1.73;;
9388;SDS011;4734;52.778;6.798;2024-03-25T11:53:36;2.88;;;1.20;;
9388;SDS011;4734;52.778;6.798;2024-03-25T11:56:21;7.85;;;2.05;;
9388;SDS011;4734;52.778;6.798;2024-03-25T11:59:06;6.50;;;1.90;;
9388;SDS011;4734;52.778;6.798;2024-03-25T12:01:51;5.35;;;1.80;;
9388;SDS011;4734;52.778;6.798;2024-03-25T12:04:36;3.25;;;1.60;;
9388;SDS011;4734;52.778;6.798;2024-03-25T12:07:22;5.68;;;1.77;;
9388;SDS011;4734;52.778;6.798;2024-03-25T12:10:07;5.90;;;1.98;;
9388;SDS011;4734;52.778;6.798;2024-03-25T12:13:11;9.45;;;2.00;;
9388;SDS011;4734;52.778;6.798;2024-03-25T12:15:56;4.93;;;1.75;;
9388;SDS011;4734;52.778;6.798;2024-03-25T12:18:40;5.18;;;1.85;;
9388;SDS011;4734;52.778;6.798;2024-03-25T12:21:25;7.18;;;2.35;;
9388;SDS011;4734;52.778;6.798;2024-03-25T12:24:12;6.28;;;1.67;;
9388;SDS011;4734;52.778;6.798;2024-03-25T12:26:57;4.18;;;1.85;;
9388;SDS011;4734;52.778;6.798;2024-03-25T12:29:41;5.55;;;1.75;;
9388;SDS011;4734;52.778;6.798;2024-03-25T12:32:35;3.78;;;1.80;;
9388;SDS011;4734;52.778;6.798;2024-03-25T12:35:21;8.43;;;1.80;;
9388;SDS011;4734;52.778;6.798;2024-03-25T12:38:06;5.00;;;1.92;;
9388;SDS011;4734;52.778;6.798;2024-03-25T12:40:53;7.05;;;2.05;;
9388;SDS011;4734;52.778;6.798;2024-03-25T12:43:41;3.80;;;1.40;;
9388;SDS011;4734;52.778;6.798;2024-03-25T12:46:29;4.95;;;2.00;;
9388;SDS011;4734;52.778;6.798;2024-03-25T12:49:14;5.75;;;1.88;;
9388;SDS011;4734;52.778;6.798;2024-03-25T12:52:01;5.88;;;1.70;;
9388;SDS011;4734;52.778;6.798;2024-03-25T12:54:46;5.55;;;1.63;;
9388;SDS011;4734;52.778;6.798;2024-03-25T12:57:35;5.25;;;2.03;;
9388;SDS011;4734;52.778;6.798;2024-03-25T13:00:20;4.35;;;1.70;;
9388;SDS011;4734;52.778;6.798;2024-03-25T13:03:09;6.68;;;1.90;;
9388;SDS011;4734;52.778;6.798;2024-03-25T13:05:56;5.47;;;1.88;;
9388;SDS011;4734;52.778;6.798;2024-03-25T13:08:45;6.15;;;1.85;;
9388;SDS011;4734;52.778;6.798;2024-03-25T13:11:30;6.18;;;1.70;;
9388;SDS011;4734;52.778;6.798;2024-03-25T13:14:17;5.55;;;1.77;;
9388;SDS011;4734;52.778;6.798;2024-03-25T13:17:01;3.92;;;1.67;;
9388;SDS011;4734;52.778;6.798;2024-03-25T13:19:48;4.13;;;1.70;;
9388;SDS011;4734;52.778;6.798;2024-03-25T13:22:32;5.95;;;1.83;;
9388;SDS011;4734;52.778;6.798;2024-03-25T13:25:20;5.55;;;1.50;;
9388;SDS011;4734;52.778;6.798;2024-03-25T13:28:05;6.43;;;1.80;;
9388;SDS011;4734;52.778;6.798;2024-03-25T13:30:52;4.50;;;1.50;;
9388;SDS011;4734;52.778;6.798;2024-03-25T13:33:37;4.95;;;1.77;;
9388;SDS011;4734;52.778;6.798;2024-03-25T13:36:22;7.18;;;1.88;;
9388;SDS011;4734;52.778;6.798;2024-03-25T13:39:07;6.93;;;2.00;;
9388;SDS011;4734;52.778;6.798;2024-03-25T13:41:53;3.05;;;1.83;;
9388;SDS011;4734;52.778;6.798;2024-03-25T13:44:39;3.55;;;1.67;;
9388;SDS011;4734;52.778;6.798;2024-03-25T13:47:25;9.52;;;2.17;;
9388;SDS011;4734;52.778;6.798;2024-03-25T13:50:10;4.45;;;1.80;;
9388;SDS011;4734;52.778;6.798;2024-03-25T13:52:55;4.63;;;1.63;;
9388;SDS011;4734;52.778;6.798;2024-03-25T13:55:39;7.38;;;2.08;;
9388;SDS011;4734;52.778;6.798;2024-03-25T13:58:24;4.53;;;1.63;;
9388;SDS011;4734;52.778;6.798;2024-03-25T14:01:09;3.40;;;1.70;;
9388;SDS011;4734;52.778;6.798;2024-03-25T14:03:56;4.43;;;1.75;;
9388;SDS011;4734;52.778;6.798;2024-03-25T14:06:41;4.60;;;1.63;;
9388;SDS011;4734;52.778;6.798;2024-03-25T14:09:26;3.45;;;1.55;;
9388;SDS011;4734;52.778;6.798;2024-03-25T14:12:11;4.07;;;1.60;;
9388;SDS011;4734;52.778;6.798;2024-03-25T14:14:56;6.72;;;1.77;;
9388;SDS011;4734;52.778;6.798;2024-03-25T14:17:40;4.50;;;1.80;;
9388;SDS011;4734;52.778;6.798;2024-03-25T14:20:27;4.95;;;1.58;;
9388;SDS011;4734;52.778;6.798;2024-03-25T14:23:12;5.05;;;1.70;;
9388;SDS011;4734;52.778;6.798;2024-03-25T14:25:58;3.33;;;1.40;;
9388;SDS011;4734;52.778;6.798;2024-03-25T14:28:46;6.00;;;1.50;;
9388;SDS011;4734;52.778;6.798;2024-03-25T14:31:31;6.43;;;2.00;;
9388;SDS011;4734;52.778;6.798;2024-03-25T14:34:16;4.30;;;1.67;;
9388;SDS011;4734;52.778;6.798;2024-03-25T14:37:04;4.97;;;1.70;;
9388;SDS011;4734;52.778;6.798;2024-03-25T14:39:48;2.63;;;1.45;;
9388;SDS011;4734;52.778;6.798;2024-03-25T14:42:36;5.15;;;2.05;;
9388;SDS011;4734;52.778;6.798;2024-03-25T14:45:20;4.47;;;1.80;;
9388;SDS011;4734;52.778;6.798;2024-03-25T14:48:06;3.47;;;1.60;;
9388;SDS011;4734;52.778;6.798;2024-03-25T14:50:51;3.53;;;1.25;;
9388;SDS011;4734;52.778;6.798;2024-03-25T14:53:37;1.98;;;1.20;;
9388;SDS011;4734;52.778;6.798;2024-03-25T14:56:22;4.05;;;1.33;;
9388;SDS011;4734;52.778;6.798;2024-03-25T14:59:08;6.03;;;1.60;;
9388;SDS011;4734;52.778;6.798;2024-03-25T15:01:53;1.98;;;1.13;;
9388;SDS011;4734;52.778;6.798;2024-03-25T15:04:37;4.07;;;1.65;;
9388;SDS011;4734;52.778;6.798;2024-03-25T15:07:22;2.83;;;1.30;;
9388;SDS011;4734;52.778;6.798;2024-03-25T15:10:11;5.00;;;1.63;;
9388;SDS011;4734;52.778;6.798;2024-03-25T15:12:55;4.13;;;1.40;;
9388;SDS011;4734;52.778;6.798;2024-03-25T15:15:40;2.97;;;1.45;;
9388;SDS011;4734;52.778;6.798;2024-03-25T15:18:25;2.72;;;1.67;;
9388;SDS011;4734;52.778;6.798;2024-03-25T15:21:10;1.80;;;1.10;;
9388;SDS011;4734;52.778;6.798;2024-03-25T15:23:55;2.78;;;1.25;;
9388;SDS011;4734;52.778;6.798;2024-03-25T15:26:41;2.97;;;1.40;;
9388;SDS011;4734;52.778;6.798;2024-03-25T15:29:25;3.15;;;1.42;;
9388;SDS011;4734;52.778;6.798;2024-03-25T15:32:10;2.08;;;1.30;;
9388;SDS011;4734;52.778;6.798;2024-03-25T15:34:55;4.38;;;1.75;;
9388;SDS011;4734;52.778;6.798;2024-03-25T15:37:40;2.45;;;1.23;;
9388;SDS011;4734;52.778;6.798;2024-03-25T15:40:24;4.18;;;1.20;;
9388;SDS011;4734;52.778;6.798;2024-03-25T15:43:10;2.92;;;1.00;;
9388;SDS011;4734;52.778;6.798;2024-03-25T15:45:55;4.93;;;1.05;;
9388;SDS011;4734;52.778;6.798;2024-03-25T15:48:41;2.35;;;0.80;;
9388;SDS011;4734;52.778;6.798;2024-03-25T15:51:25;2.70;;;0.93;;
9388;SDS011;4734;52.778;6.798;2024-03-25T15:54:10;2.75;;;1.10;;
9388;SDS011;4734;52.778;6.798;2024-03-25T15:56:55;3.05;;;1.35;;
9388;SDS011;4734;52.778;6.798;2024-03-25T15:59:41;3.00;;;1.10;;
9388;SDS011;4734;52.778;6.798;2024-03-25T16:02:25;2.25;;;1.17;;
9388;SDS011;4734;52.778;6.798;2024-03-25T16:05:10;2.38;;;1.27;;
9388;SDS011;4734;52.778;6.798;2024-03-25T16:07:55;3.70;;;1.33;;
9388;SDS011;4734;52.778;6.798;2024-03-25T16:10:39;4.00;;;1.10;;
9388;SDS011;4734;52.778;6.798;2024-03-25T16:13:24;2.90;;;1.10;;
9388;SDS011;4734;52.778;6.798;2024-03-25T16:16:10;6.32;;;1.30;;
9388;SDS011;4734;52.778;6.798;2024-03-25T16:18:55;5.10;;;1.05;;
9388;SDS011;4734;52.778;6.798;2024-03-25T16:21:40;2.30;;;1.10;;
9388;SDS011;4734;52.778;6.798;2024-03-25T16:24:24;1.67;;;0.98;;
9388;SDS011;4734;52.778;6.798;2024-03-25T16:27:09;2.33;;;1.05;;
9388;SDS011;4734;52.778;6.798;2024-03-25T16:29:54;3.70;;;1.40;;
9388;SDS011;4734;52.778;6.798;2024-03-25T16:32:40;2.25;;;1.33;;
9388;SDS011;4734;52.778;6.798;2024-03-25T16:35:24;3.90;;;1.38;;
9388;SDS011;4734;52.778;6.798;2024-03-25T16:38:09;2.38;;;1.20;;
9388;SDS011;4734;52.778;6.798;2024-03-25T16:40:54;2.72;;;1.25;;
9388;SDS011;4734;52.778;6.798;2024-03-25T16:43:38;3.97;;;1.40;;
9388;SDS011;4734;52.778;6.798;2024-03-25T16:46:23;4.60;;;1.55;;
9388;SDS011;4734;52.778;6.798;2024-03-25T16:49:12;3.35;;;1.50;;
9388;SDS011;4734;52.778;6.798;2024-03-25T16:51:57;3.33;;;1.40;;
9388;SDS011;4734;52.778;6.798;2024-03-25T16:54:42;4.43;;;1.30;;
9388;SDS011;4734;52.778;6.798;2024-03-25T16:57:27;2.88;;;1.75;;
9388;SDS011;4734;52.778;6.798;2024-03-25T17:00:12;2.88;;;1.55;;
9388;SDS011;4734;52.778;6.798;2024-03-25T17:02:57;4.43;;;1.48;;
9388;SDS011;4734;52.778;6.798;2024-03-25T17:05:43;4.65;;;1.55;;
9388;SDS011;4734;52.778;6.798;2024-03-25T17:08:28;3.45;;;1.58;;